Time;durP1;ratioP1;P1;durP2;ratioP2;P2;SDS_P1;SDS_P2;PMS_P1;PMS_P2;Temp;Humidity;BMP_temperature;BMP_pressure;BME280_temperature;BME280_humidity;BME280_pressure;Samples;Min_cycle;Max_cycle;Signal;HPM_P1;HPM_P2
2021/07/24 00:01:08;;;;;;;14.58;10.90;;;;;;;16.28;70.58;100083.55;1718100;82;21071;-79
2021/07/24 00:03:36;;;;;;;18.02;11.20;;;;;;;16.25;70.68;100083.39;1705938;82;22702;-79
2021/07/24 00:06:03;;;;;;;17.75;10.85;;;;;;;16.24;70.68;100086.22;1705220;84;20972;-78
2021/07/24 00:08:29;;;;;;;12.50;10.70;;;;;;;16.22;70.69;100078.91;1729715;82;21036;-79
2021/07/24 00:10:55;;;;;;;14.78;11.40;;;;;;;16.22;70.73;100084.23;1734996;82;21059;-79
2021/07/24 00:13:23;;;;;;;15.25;10.75;;;;;;;16.21;70.72;100087.39;1711140;82;21297;-79
2021/07/24 00:15:50;;;;;;;12.40;10.43;;;;;;;16.21;70.65;100084.73;1705592;84;22222;-79
2021/07/24 00:18:16;;;;;;;13.25;10.60;;;;;;;16.20;70.67;100084.37;1706324;82;21027;-79
2021/07/24 00:20:43;;;;;;;13.35;10.13;;;;;;;16.20;70.68;100084.87;1727030;82;20932;-77
2021/07/24 00:23:11;;;;;;;12.60;9.75;;;;;;;16.18;70.73;100085.54;1713985;82;20976;-79
2021/07/24 00:25:40;;;;;;;13.13;9.90;;;;;;;16.16;70.84;100088.88;1713406;82;21429;-78
2021/07/24 00:28:07;;;;;;;19.87;10.32;;;;;;;16.12;70.95;100087.05;1687349;82;21855;-78
2021/07/24 00:30:38;;;;;;;14.50;10.18;;;;;;;16.10;71.17;100086.86;1758649;79;21412;-78
2021/07/24 00:33:07;;;;;;;10.50;6.83;;;;;;;16.08;71.24;100086.20;1771023;81;21028;-78
2021/07/24 00:35:33;;;;;;;14.00;9.58;;;;;;;16.07;71.28;100096.02;1771791;79;21042;-79
2021/07/24 00:38:01;;;;;;;15.03;9.70;;;;;;;16.03;71.36;100094.19;1770671;81;20985;-78
2021/07/24 00:40:31;;;;;;;16.95;10.60;;;;;;;16.01;71.40;100093.50;1771879;79;22450;-78
2021/07/24 00:42:58;;;;;;;12.10;9.28;;;;;;;16.01;71.40;100091.33;1790395;79;20980;-79
2021/07/24 00:45:25;;;;;;;12.95;9.35;;;;;;;16.02;71.41;100085.03;1797137;78;20964;-79
2021/07/24 00:47:55;;;;;;;12.03;9.63;;;;;;;16.03;71.34;100089.36;1781032;80;21093;-78
2021/07/24 00:50:40;;;;;;;12.93;9.63;;;;;;;16.03;71.41;100091.53;1783178;79;21426;-79
2021/07/24 00:53:12;;;;;;;11.43;9.13;;;;;;;16.01;71.37;100089.50;1784727;78;21693;-78
2021/07/24 00:55:38;;;;;;;11.65;9.38;;;;;;;15.98;71.34;100087.17;1808806;79;21448;-77
2021/07/24 00:58:25;;;;;;;11.28;8.90;;;;;;;15.98;71.36;100091.17;1776702;80;20929;-78
2021/07/24 01:00:52;;;;;;;13.43;9.03;;;;;;;15.97;71.29;100094.00;1796537;77;20957;-79
2021/07/24 01:03:19;;;;;;;13.88;8.90;;;;;;;15.94;71.36;100088.52;1794668;77;21467;-79
2021/07/24 01:05:46;;;;;;;11.43;9.00;;;;;;;15.91;71.47;100088.81;1781484;80;22394;-79
2021/07/24 01:08:13;;;;;;;13.85;8.38;;;;;;;15.88;71.54;100086.48;1780921;80;20956;-79
2021/07/24 01:10:40;;;;;;;14.05;8.80;;;;;;;15.87;71.66;100088.81;1797188;78;20965;-79
2021/07/24 01:13:08;;;;;;;10.28;8.75;;;;;;;15.85;71.66;100078.00;1812995;79;20989;-79
2021/07/24 01:15:36;;;;;;;11.63;8.85;;;;;;;15.82;71.71;100081.80;1797036;79;20968;-79
2021/07/24 01:18:04;;;;;;;10.78;8.58;;;;;;;15.81;71.73;100084.13;1781010;80;21832;-79
2021/07/24 01:20:31;;;;;;;11.78;8.95;;;;;;;15.80;71.75;100086.47;1793827;78;20992;-79
2021/07/24 01:22:58;;;;;;;10.50;8.35;;;;;;;15.78;71.80;100081.80;1765465;79;21426;-78
2021/07/24 01:25:24;;;;;;;11.43;8.80;;;;;;;15.74;71.89;100082.64;1781940;80;21038;-79
2021/07/24 01:27:51;;;;;;;9.48;8.43;;;;;;;15.71;71.91;100084.27;1780912;80;20993;-78
2021/07/24 01:30:18;;;;;;;13.50;8.73;;;;;;;15.69;72.03;100080.95;1784292;77;22340;-78
2021/07/24 01:32:46;;;;;;;11.43;8.43;;;;;;;15.66;72.06;100079.11;1792711;77;20937;-78
2021/07/24 01:35:13;;;;;;;14.53;8.80;;;;;;;15.63;72.10;100076.28;1782079;78;20936;-78
2021/07/24 01:37:40;;;;;;;10.72;8.28;;;;;;;15.62;72.17;100088.40;1781126;80;21046;-79
2021/07/24 01:40:09;;;;;;;12.75;8.43;;;;;;;15.61;72.18;100083.58;1781589;79;21047;-78
2021/07/24 01:42:37;;;;;;;11.15;9.18;;;;;;;15.61;72.23;100084.08;1817294;78;21793;-78
2021/07/24 01:45:06;;;;;;;10.45;8.05;;;;;;;15.60;72.24;100091.23;1848155;77;21074;-78
2021/07/24 01:47:36;;;;;;;13.40;8.65;;;;;;;15.59;72.24;100085.53;1854627;77;20937;-78
2021/07/24 01:52:51;;;;;;;10.10;8.30;;;;;;;15.60;72.22;100091.23;1808393;77;21000;-78
2021/07/24 01:55:40;;;;;;;10.18;8.38;;;;;;;15.58;72.20;100090.53;1855853;77;21736;-80
2021/07/24 01:58:14;;;;;;;10.10;8.18;;;;;;;15.58;72.17;100090.53;1838334;77;20980;-80
2021/07/24 02:00:44;;;;;;;10.58;7.67;;;;;;;15.59;72.13;100096.69;1779853;77;20918;-79
2021/07/24 02:03:15;;;;;;;10.80;7.83;;;;;;;15.53;72.12;100090.16;1771980;80;21072;-79
2021/07/24 02:05:53;;;;;;;12.00;7.85;;;;;;;15.52;72.18;100094.32;1778061;78;21027;-79
2021/07/24 02:08:24;;;;;;;10.35;8.18;;;;;;;15.51;72.23;100096.16;1817166;77;21799;-79
2021/07/24 02:10:51;;;;;;;11.73;7.90;;;;;;;15.49;72.22;100091.49;1800423;78;21436;-78
2021/07/24 02:13:20;;;;;;;9.95;8.00;;;;;;;15.45;72.24;100096.31;1817409;77;21499;-78
2021/07/24 02:15:47;;;;;;;11.68;8.38;;;;;;;15.45;72.29;100101.63;1817117;79;21017;-79
2021/07/24 02:18:19;;;;;;;9.25;7.78;;;;;;;15.45;72.42;100101.63;1819118;77;20987;-78
2021/07/24 02:20:47;;;;;;;10.13;5.97;;;;;;;15.44;72.46;100107.95;1780114;78;21796;-78
2021/07/24 02:23:16;;;;;;;10.95;7.65;;;;;;;15.45;72.46;100100.30;1809937;78;21392;-78
2021/07/24 02:25:44;;;;;;;10.98;8.68;;;;;;;15.46;72.56;100099.80;1789878;77;20940;-79
2021/07/24 02:28:10;;;;;;;13.53;8.98;;;;;;;15.48;72.62;100098.31;1837777;77;21016;-78
2021/07/24 02:30:37;;;;;;;12.07;9.25;;;;;;;15.49;72.71;100103.47;1853780;77;21482;-79
2021/07/24 02:33:03;;;;;;;11.03;8.73;;;;;;;15.52;72.74;100103.64;1825506;76;21491;-79
2021/07/24 02:35:30;;;;;;;13.58;9.55;;;;;;;15.53;72.75;100097.31;1821176;78;20985;-79
2021/07/24 02:38:14;;;;;;;15.88;10.55;;;;;;;15.55;72.78;100102.84;1823194;77;20944;-78
2021/07/24 02:40:41;;;;;;;15.45;10.35;;;;;;;15.55;72.78;100104.17;1810558;77;20984;-79
2021/07/24 02:43:09;;;;;;;13.95;9.98;;;;;;;15.53;72.80;100102.64;1830509;77;21021;-78
2021/07/24 02:45:38;;;;;;;16.15;9.65;;;;;;;15.56;72.74;100101.01;1854516;77;21883;-79
2021/07/24 02:48:04;;;;;;;14.90;9.95;;;;;;;15.57;72.74;100102.67;1849824;77;21051;-78
2021/07/24 02:50:33;;;;;;;12.30;9.50;;;;;;;15.56;72.77;100107.66;1820718;78;20992;-78
2021/07/24 02:52:59;;;;;;;11.95;9.28;;;;;;;15.59;72.74;100110.00;1828887;77;21037;-78
2021/07/24 02:55:26;;;;;;;15.23;9.70;;;;;;;15.59;72.72;100103.34;1842955;77;21324;-78
2021/07/24 02:57:53;;;;;;;12.68;9.00;;;;;;;15.61;72.80;100110.20;1830863;77;22179;-78
2021/07/24 03:00:19;;;;;;;15.53;9.30;;;;;;;15.63;72.83;100102.05;1822565;77;20976;-78
2021/07/24 03:02:46;;;;;;;12.70;8.85;;;;;;;15.64;72.86;100105.91;1824905;77;20932;-79
2021/07/24 03:05:13;;;;;;;14.80;9.23;;;;;;;15.64;72.87;100111.23;1821091;78;20944;-78
2021/07/24 03:07:39;;;;;;;13.72;8.73;;;;;;;15.65;72.96;100110.23;1818529;78;20964;-78
2021/07/24 03:10:09;;;;;;;14.93;9.25;;;;;;;15.67;73.00;100114.89;1820599;78;21534;-78
2021/07/24 03:12:37;;;;;;;14.58;9.48;;;;;;;15.66;73.13;100107.90;1794377;77;21026;-78
2021/07/24 03:15:06;;;;;;;11.28;8.73;;;;;;;15.72;73.15;100113.06;1811270;78;20929;-78
2021/07/24 03:17:32;;;;;;;9.63;6.60;;;;;;;15.75;73.24;100112.77;1820733;78;21632;-78
2021/07/24 03:19:59;;;;;;;9.05;7.00;;;;;;;15.82;73.33;100114.26;1821032;78;20969;-78
2021/07/24 03:22:25;;;;;;;8.00;6.58;;;;;;;15.94;73.42;100117.81;1833222;77;21712;-79
2021/07/24 03:24:56;;;;;;;8.45;5.55;;;;;;;16.02;73.54;100114.34;1854267;77;20924;-78
2021/07/24 03:27:23;;;;;;;7.55;5.30;;;;;;;16.13;73.51;100114.52;1800478;77;21000;-79
2021/07/24 03:29:50;;;;;;;9.15;5.37;;;;;;;16.27;73.39;100117.86;1788284;79;21460;-79
2021/07/24 03:32:16;;;;;;;4.95;4.08;;;;;;;16.43;73.30;100119.72;1820233;77;21367;-79
2021/07/24 03:34:44;;;;;;;8.75;4.87;;;;;;;16.57;73.04;100116.38;1846993;77;21376;-79
2021/07/24 03:37:10;;;;;;;9.30;4.60;;;;;;;16.76;72.79;100117.91;1826842;76;21028;-79
2021/07/24 03:39:37;;;;;;;10.65;4.70;;;;;;;16.91;72.46;100124.23;1820605;78;21118;-78
2021/07/24 03:42:04;;;;;;;8.65;4.42;;;;;;;17.03;72.11;100121.55;1813225;78;21087;-78
2021/07/24 03:44:31;;;;;;;7.37;4.53;;;;;;;17.16;71.49;100117.84;1818129;77;21032;-79
2021/07/24 03:46:58;;;;;;;9.00;4.67;;;;;;;17.31;71.01;100115.81;1854355;77;22228;-79
2021/07/24 03:49:24;;;;;;;7.37;4.67;;;;;;;17.43;70.51;100124.61;1798627;76;20942;-79
2021/07/24 03:51:51;;;;;;;6.80;4.50;;;;;;;17.54;70.17;100116.72;1831297;77;20984;-78
2021/07/24 03:54:18;;;;;;;10.65;4.47;;;;;;;17.61;69.90;100119.55;1842091;77;21548;-78
2021/07/24 03:56:44;;;;;;;10.18;4.58;;;;;;;17.70;69.43;100118.53;1819580;77;21502;-78
2021/07/24 03:59:11;;;;;;;7.53;4.08;;;;;;;17.81;69.25;100119.98;1819500;77;22740;-79
2021/07/24 04:01:40;;;;;;;5.85;4.35;;;;;;;17.90;68.89;100122.94;1822874;77;21536;-79
2021/07/24 04:04:06;;;;;;;12.23;4.75;;;;;;;17.98;68.60;100129.59;1835786;77;21094;-78
2021/07/24 04:06:33;;;;;;;6.92;4.35;;;;;;;18.07;68.38;100126.36;1830067;77;21381;-80
2021/07/24 04:09:00;;;;;;;12.63;5.12;;;;;;;18.13;68.10;100122.97;1828751;77;21425;-80
2021/07/24 04:11:27;;;;;;;8.00;4.35;;;;;;;18.21;67.83;100123.75;1833300;77;23173;-79
2021/07/24 04:13:55;;;;;;;5.62;4.40;;;;;;;18.28;67.49;100123.38;1796216;78;20937;-79
2021/07/24 04:16:21;;;;;;;7.40;4.78;;;;;;;18.33;67.35;100124.16;1841015;77;20980;-79
2021/07/24 04:18:50;;;;;;;8.45;4.92;;;;;;;18.40;67.11;100126.46;1844635;77;20958;-80
2021/07/24 04:21:16;;;;;;;7.60;4.85;;;;;;;18.46;66.77;100124.42;1802861;78;21560;-78
2021/07/24 04:23:44;;;;;;;7.47;4.70;;;;;;;18.53;66.23;100124.55;1821117;77;22179;-79
2021/07/24 04:26:11;;;;;;;6.47;4.70;;;;;;;18.57;66.19;100122.66;1797668;77;21062;-80
2021/07/24 04:28:39;;;;;;;7.72;5.33;;;;;;;18.63;66.07;100127.81;1792509;77;21441;-80
2021/07/24 04:31:13;;;;;;;10.30;5.15;;;;;;;18.69;65.77;100119.07;1797621;78;21567;-80
2021/07/24 04:33:40;;;;;;;9.00;5.03;;;;;;;18.70;65.54;100122.58;1806468;77;21000;-79
2021/07/24 04:36:07;;;;;;;13.25;5.10;;;;;;;18.79;65.26;100125.00;1854535;77;22134;-80
2021/07/24 04:38:33;;;;;;;8.58;4.50;;;;;;;18.56;65.78;100122.33;1801809;77;20936;-80
2021/07/24 04:41:00;;;;;;;7.45;4.53;;;;;;;18.56;65.91;100130.86;1788928;78;21039;-79
2021/07/24 04:43:27;;;;;;;6.92;4.90;;;;;;;18.59;65.75;100136.67;1819196;77;21089;-79
2021/07/24 04:45:53;;;;;;;9.80;4.97;;;;;;;18.64;65.70;100137.49;1808435;77;20945;-79
2021/07/24 04:48:20;;;;;;;9.35;5.10;;;;;;;18.69;65.70;100128.95;1843854;77;21762;-79
2021/07/24 04:50:50;;;;;;;7.08;4.80;;;;;;;18.76;65.57;100134.73;1835912;77;21040;-79
2021/07/24 04:53:17;;;;;;;7.40;5.12;;;;;;;18.82;65.62;100135.36;1804958;77;20868;-78
2021/07/24 04:55:43;;;;;;;11.10;5.10;;;;;;;18.90;65.51;100138.95;1798908;78;21470;-79
2021/07/24 04:58:11;;;;;;;6.95;4.83;;;;;;;18.95;65.36;100133.91;1825680;77;21024;-78
2021/07/24 05:00:38;;;;;;;7.95;4.87;;;;;;;19.02;65.22;100137.53;1802327;77;22224;-78
2021/07/24 05:03:04;;;;;;;8.20;4.80;;;;;;;19.10;65.29;100138.76;1810289;77;21012;-78
2021/07/24 05:05:31;;;;;;;7.55;5.08;;;;;;;19.18;65.17;100134.66;1788840;80;20988;-79
2021/07/24 05:07:58;;;;;;;13.30;5.50;;;;;;;19.23;64.96;100136.30;1788852;80;21027;-79
2021/07/24 05:10:26;;;;;;;7.83;5.00;;;;;;;19.27;64.70;100134.91;1818273;77;20929;-79
2021/07/24 05:12:53;;;;;;;7.83;5.17;;;;;;;19.32;64.69;100131.69;1823137;77;21782;-78
2021/07/24 05:15:19;;;;;;;7.72;5.35;;;;;;;19.36;64.84;100132.97;1832904;77;20991;-79
2021/07/24 05:17:46;;;;;;;8.08;5.25;;;;;;;19.40;64.61;100135.63;1788916;78;20944;-79
2021/07/24 05:20:12;;;;;;;7.92;4.65;;;;;;;19.44;64.63;100137.73;1816771;77;20924;-79
2021/07/24 05:22:39;;;;;;;7.50;5.00;;;;;;;19.54;64.35;100133.94;1816585;77;21036;-78
2021/07/24 05:25:06;;;;;;;6.25;4.60;;;;;;;19.60;64.25;100138.09;1798921;77;22203;-78
2021/07/24 05:27:33;;;;;;;9.78;5.30;;;;;;;19.68;64.42;100139.30;1809163;77;21079;-78
2021/07/24 05:30:00;;;;;;;9.85;5.30;;;;;;;19.76;64.14;100140.23;1813349;77;21051;-79
2021/07/24 05:32:26;;;;;;;9.83;5.10;;;;;;;19.84;63.72;100139.62;1817629;77;21002;-79
2021/07/24 05:34:53;;;;;;;7.60;5.15;;;;;;;19.90;63.49;100136.20;1816996;77;21413;-78
2021/07/24 05:37:20;;;;;;;10.18;5.35;;;;;;;19.97;63.37;100141.11;1792041;77;22227;-79
2021/07/24 05:39:47;;;;;;;11.18;5.60;;;;;;;20.04;63.34;100141.19;1820407;77;21024;-79
2021/07/24 05:42:14;;;;;;;9.35;5.47;;;;;;;20.13;63.31;100142.73;1822016;77;20975;-79
2021/07/24 05:44:40;;;;;;;7.92;5.70;;;;;;;20.24;63.17;100145.44;1811607;77;21221;-80
2021/07/24 05:47:06;;;;;;;7.33;5.55;;;;;;;20.31;62.31;100139.64;1820664;78;20949;-79
2021/07/24 05:49:35;;;;;;;7.83;5.83;;;;;;;20.37;61.78;100140.23;1779378;78;22170;-80
2021/07/24 05:52:01;;;;;;;8.35;5.80;;;;;;;20.40;61.41;100147.88;1820079;78;21036;-80
2021/07/24 05:54:28;;;;;;;7.87;5.53;;;;;;;20.46;61.26;100148.50;1828442;78;21460;-80
2021/07/24 05:56:54;;;;;;;7.30;5.42;;;;;;;20.54;61.30;100142.16;1807206;77;21554;-79
2021/07/24 05:59:20;;;;;;;9.08;5.90;;;;;;;20.63;60.81;100151.73;1808111;79;22201;-80
2021/07/24 06:01:47;;;;;;;9.93;5.45;;;;;;;20.72;60.93;100145.22;1817474;78;22777;-80
2021/07/24 06:04:14;;;;;;;6.37;5.00;;;;;;;20.79;60.87;100147.97;1825318;78;20981;-80
2021/07/24 06:06:41;;;;;;;11.38;5.60;;;;;;;20.88;60.60;100150.00;1825032;78;21001;-81
2021/07/24 06:09:07;;;;;;;8.80;5.90;;;;;;;20.98;60.27;100147.81;1836724;78;21486;-81
2021/07/24 06:11:34;;;;;;;10.72;5.62;;;;;;;21.08;59.63;100153.67;1807016;78;20953;-79
2021/07/24 06:14:00;;;;;;;9.28;5.90;;;;;;;21.16;59.52;100148.16;1816050;78;21767;-81
2021/07/24 06:16:28;;;;;;;7.75;5.33;;;;;;;21.24;59.28;100156.58;1802174;78;21020;-77
2021/07/24 06:18:54;;;;;;;7.75;5.50;;;;;;;21.32;59.02;100158.61;1796065;78;21017;-78
2021/07/24 06:21:20;;;;;;;10.20;5.60;;;;;;;21.37;58.60;100154.83;1806197;78;21040;-80
2021/07/24 06:23:49;;;;;;;6.95;5.78;;;;;;;21.46;58.88;100152.82;1800362;78;21035;-77
2021/07/24 06:26:15;;;;;;;10.10;5.95;;;;;;;21.54;58.66;100155.35;1788529;78;22145;-76
2021/07/24 06:28:43;;;;;;;7.37;5.42;;;;;;;21.63;57.91;100156.02;1784120;78;21047;-79
2021/07/24 06:31:10;;;;;;;10.75;5.72;;;;;;;21.74;57.84;100154.11;1803240;78;21442;-76
2021/07/24 06:33:36;;;;;;;8.33;5.72;;;;;;;21.77;56.34;100152.87;1795389;78;21280;-76
2021/07/24 06:36:03;;;;;;;8.15;6.05;;;;;;;21.76;56.56;100157.94;1803539;77;21431;-77
2021/07/24 06:38:30;;;;;;;8.05;5.97;;;;;;;21.81;56.96;100159.49;1804171;78;21815;-82
2021/07/24 06:40:57;;;;;;;11.00;5.72;;;;;;;21.88;56.78;100159.02;1787514;78;21044;-76
2021/07/24 06:43:23;;;;;;;7.05;5.62;;;;;;;21.96;57.10;100154.81;1832377;77;21109;-77
2021/07/24 06:45:50;;;;;;;9.85;5.97;;;;;;;22.05;56.50;100154.95;1781347;79;21566;-76
2021/07/24 06:48:16;;;;;;;10.23;5.78;;;;;;;22.13;56.13;100156.16;1782341;80;21026;-76
2021/07/24 06:50:43;;;;;;;7.33;5.80;;;;;;;22.17;55.75;100163.29;1783274;77;21703;-76
2021/07/24 06:53:09;;;;;;;15.23;5.90;;;;;;;22.23;55.40;100163.32;1799003;78;21051;-76
2021/07/24 06:55:36;;;;;;;8.55;5.72;;;;;;;22.30;55.67;100161.17;1813456;79;20993;-76
2021/07/24 06:58:02;;;;;;;9.80;6.00;;;;;;;22.38;54.65;100164.48;1815109;79;21006;-76
2021/07/24 07:00:32;;;;;;;8.40;5.58;;;;;;;22.53;55.01;100164.31;1813332;79;21000;-76
2021/07/24 07:02:59;;;;;;;7.70;5.78;;;;;;;22.63;54.87;100163.40;1805113;77;22312;-76
2021/07/24 07:05:28;;;;;;;7.92;5.83;;;;;;;22.73;55.34;100169.20;1815100;79;21440;-76
2021/07/24 07:07:56;;;;;;;7.58;6.05;;;;;;;22.80;54.82;100166.01;1809648;79;21137;-76
2021/07/24 07:10:24;;;;;;;8.53;6.20;;;;;;;22.88;53.94;100169.57;1783326;80;21400;-76
2021/07/24 07:12:51;;;;;;;7.95;6.03;;;;;;;22.85;53.65;100172.97;1802763;79;21514;-76
2021/07/24 07:15:18;;;;;;;7.67;5.80;;;;;;;22.84;53.48;100173.17;1781959;78;22257;-76
2021/07/24 07:17:45;;;;;;;8.10;5.37;;;;;;;22.89;53.65;100175.27;1780071;79;21449;-76
2021/07/24 07:20:12;;;;;;;8.93;5.67;;;;;;;22.94;53.41;100173.59;1809727;77;21122;-76
2021/07/24 07:22:38;;;;;;;5.90;5.30;;;;;;;23.05;53.00;100178.88;1785357;77;21629;-77
2021/07/24 07:25:06;;;;;;;8.63;5.70;;;;;;;23.11;52.48;100176.70;1783365;80;20956;-76
2021/07/24 07:27:33;;;;;;;9.48;5.90;;;;;;;23.17;52.83;100176.40;1791225;78;22189;-77
2021/07/24 07:29:59;;;;;;;11.38;5.80;;;;;;;23.28;52.99;100171.72;1792989;79;21434;-76
2021/07/24 07:32:26;;;;;;;7.80;5.70;;;;;;;23.34;52.38;100170.34;1795105;77;21367;-76
2021/07/24 07:34:53;;;;;;;8.35;5.33;;;;;;;23.36;52.78;100164.25;1807107;77;21490;-77
2021/07/24 07:37:20;;;;;;;10.43;5.70;;;;;;;23.47;52.70;100166.81;1785140;77;20991;-76
2021/07/24 07:39:47;;;;;;;10.25;4.92;;;;;;;23.60;52.07;100174.06;1783561;80;21764;-76
2021/07/24 07:42:13;;;;;;;6.15;5.17;;;;;;;23.72;51.98;100171.53;1784946;79;20977;-76
2021/07/24 07:44:39;;;;;;;9.15;5.50;;;;;;;23.80;50.55;100176.70;1809970;79;20997;-76
2021/07/24 07:47:06;;;;;;;8.13;5.25;;;;;;;23.84;50.20;100182.81;1785092;79;21115;-76
2021/07/24 07:49:33;;;;;;;8.60;5.42;;;;;;;23.84;49.89;100181.47;1775787;80;20952;-76
2021/07/24 07:51:59;;;;;;;8.05;5.65;;;;;;;23.83;50.13;100186.53;1780317;78;22253;-77
2021/07/24 07:54:30;;;;;;;9.95;5.80;;;;;;;23.88;50.60;100180.52;1778117;78;21377;-77
2021/07/24 07:56:54;;;;;;;10.78;5.40;;;;;;;23.94;50.78;100181.84;1775452;80;20961;-76
2021/07/24 07:59:20;;;;;;;8.73;5.65;;;;;;;24.05;49.83;100179.00;1776176;80;21032;-77
2021/07/24 08:01:47;;;;;;;7.03;5.28;;;;;;;24.16;49.22;100185.58;1776543;79;20949;-77
2021/07/24 08:04:14;;;;;;;8.85;5.55;;;;;;;24.17;48.46;100187.23;1798619;78;21784;-76
2021/07/24 08:06:40;;;;;;;7.05;5.67;;;;;;;24.09;47.38;100184.78;1782281;78;21479;-77
2021/07/24 08:09:07;;;;;;;6.83;5.25;;;;;;;24.05;48.57;100183.56;1775819;80;21413;-76
2021/07/24 08:11:33;;;;;;;6.45;5.33;;;;;;;24.16;49.75;100183.71;1794141;79;21632;-76
2021/07/24 08:13:59;;;;;;;8.50;5.20;;;;;;;24.32;49.33;100182.92;1789216;79;21490;-76
2021/07/24 08:16:26;;;;;;;9.85;5.33;;;;;;;24.42;48.77;100189.53;1775805;80;22439;-77
2021/07/24 08:18:53;;;;;;;5.85;5.05;;;;;;;24.51;46.32;100186.02;1781211;78;21103;-77
2021/07/24 08:21:19;;;;;;;6.37;4.87;;;;;;;24.53;45.53;100191.53;1781444;78;20997;-76
2021/07/24 08:23:46;;;;;;;7.42;4.92;;;;;;;24.54;44.74;100193.71;1777128;78;20953;-77
2021/07/24 08:26:12;;;;;;;8.15;4.97;;;;;;;24.51;44.08;100193.63;1776836;78;20979;-76
2021/07/24 08:28:40;;;;;;;7.22;5.30;;;;;;;24.53;45.57;100195.59;1777534;78;20984;-76
2021/07/24 08:31:07;;;;;;;8.15;5.60;;;;;;;24.64;44.73;100190.53;1775778;80;20929;-76
2021/07/24 08:33:35;;;;;;;6.17;5.33;;;;;;;24.76;46.16;100202.28;1782166;79;21067;-76
2021/07/24 08:36:02;;;;;;;6.05;5.10;;;;;;;24.91;45.78;100198.75;1795654;78;21512;-77
2021/07/24 08:38:28;;;;;;;7.03;5.67;;;;;;;25.04;45.38;100195.97;1779459;78;21530;-76
2021/07/24 08:40:54;;;;;;;13.35;5.30;;;;;;;25.16;44.68;100195.24;1776008;80;22808;-76
2021/07/24 08:43:21;;;;;;;8.20;5.10;;;;;;;25.19;43.05;100196.14;1777337;77;21052;-77
2021/07/24 08:45:49;;;;;;;10.58;5.42;;;;;;;25.16;43.39;100193.37;1777147;78;20973;-77
2021/07/24 08:48:15;;;;;;;8.08;5.37;;;;;;;25.16;44.52;100197.42;1835488;78;21014;-77
2021/07/24 08:50:44;;;;;;;7.85;5.03;;;;;;;25.22;44.24;100191.67;1835202;78;20937;-76
2021/07/24 08:53:11;;;;;;;6.12;5.15;;;;;;;25.28;43.43;100190.23;1826643;78;21774;-77
2021/07/24 08:55:41;;;;;;;9.45;5.28;;;;;;;25.30;44.51;100194.92;1782647;78;21102;-77
2021/07/24 08:58:10;;;;;;;8.85;5.45;;;;;;;25.35;43.99;100191.00;1799625;79;20936;-77
2021/07/24 09:00:35;;;;;;;7.72;5.37;;;;;;;25.48;44.36;100182.45;1810179;79;21535;-77
2021/07/24 09:03:02;;;;;;;6.53;4.90;;;;;;;25.60;44.86;100188.27;1811894;78;21008;-77
2021/07/24 09:05:30;;;;;;;7.35;5.08;;;;;;;25.65;42.88;100190.28;1789607;78;22190;-77
2021/07/24 09:07:58;;;;;;;7.30;4.78;;;;;;;25.60;43.04;100186.09;1802500;79;21409;-76
2021/07/24 09:10:24;;;;;;;7.78;4.97;;;;;;;25.63;43.06;100191.86;1801701;79;21354;-77
2021/07/24 09:12:54;;;;;;;8.40;5.50;;;;;;;25.75;44.60;100186.56;1773345;79;21023;-77
2021/07/24 09:15:21;;;;;;;9.10;5.50;;;;;;;25.95;45.35;100185.80;1803127;78;21036;-77
2021/07/24 09:17:47;;;;;;;8.80;5.55;;;;;;;26.16;45.63;100188.58;1782399;79;22809;-77
2021/07/24 09:20:14;;;;;;;7.95;4.95;;;;;;;26.39;45.14;100189.22;1813500;78;20961;-77
2021/07/24 09:22:42;;;;;;;7.58;4.90;;;;;;;26.51;43.62;100191.97;1801640;78;21004;-83
2021/07/24 09:25:19;;;;;;;5.95;4.92;;;;;;;26.54;44.64;100190.17;1811671;78;21091;-82
2021/07/24 09:27:52;;;;;;;5.58;4.95;;;;;;;26.64;44.53;100190.44;1795046;79;21039;-80
2021/07/24 09:30:34;;;;;;;7.67;4.75;;;;;;;26.80;44.08;100187.03;1781500;79;22443;-80
2021/07/24 09:33:14;;;;;;;8.78;5.37;;;;;;;26.86;42.77;100182.58;1790069;78;20978;-79
2021/07/24 09:35:45;;;;;;;5.85;4.97;;;;;;;26.72;42.78;100196.02;1813932;78;20969;-79
2021/07/24 09:38:28;;;;;;;8.50;4.87;;;;;;;26.63;42.57;100189.28;1806970;77;21484;-76
2021/07/24 09:40:56;;;;;;;7.65;5.45;;;;;;;26.72;43.74;100188.72;1834737;77;27703;-76
2021/07/24 09:43:41;;;;;;;8.45;5.33;;;;;;;26.91;43.69;100187.29;1814735;78;21786;-78
2021/07/24 09:46:19;;;;;;;6.80;5.10;;;;;;;27.06;43.60;100186.34;1818812;77;21059;-78
2021/07/24 09:48:48;;;;;;;7.10;5.30;;;;;;;27.18;42.11;100185.81;1788661;80;20991;-77
2021/07/24 09:51:32;;;;;;;5.95;5.08;;;;;;;27.22;42.38;100191.09;1811918;79;20951;-75
2021/07/24 09:53:59;;;;;;;5.30;4.80;;;;;;;27.28;42.40;100175.73;1779076;77;21011;-76
2021/07/24 09:56:42;;;;;;;7.62;5.25;;;;;;;27.28;42.09;100180.63;1821740;77;22130;-77
2021/07/24 09:59:31;;;;;;;8.10;5.37;;;;;;;27.26;41.95;100181.41;1819486;77;21086;-79
2021/07/24 10:02:05;;;;;;;7.10;5.17;;;;;;;27.32;42.50;100175.05;1799185;77;21450;-77
2021/07/24 10:04:34;;;;;;;6.85;5.35;;;;;;;27.48;42.44;100172.66;1826152;77;20965;-78
2021/07/24 10:07:05;;;;;;;8.70;5.33;;;;;;;27.60;41.79;100178.89;1825063;77;21051;-76
2021/07/24 10:09:35;;;;;;;5.65;5.15;;;;;;;27.67;41.98;100179.63;1816820;77;21861;-76
2021/07/24 10:12:13;;;;;;;9.08;4.87;;;;;;;27.83;41.79;100176.72;1820325;78;21527;-76
2021/07/24 10:14:36;;;;;;;9.15;5.42;;;;;;;28.03;40.78;100176.30;1833800;77;20983;-74
2021/07/24 10:17:03;;;;;;;9.18;4.55;;;;;;;27.99;40.61;100181.91;1829787;77;21483;-76
2021/07/24 10:19:31;;;;;;;8.33;4.83;;;;;;;27.85;39.80;100172.69;1808485;77;21494;-75
2021/07/24 10:21:59;;;;;;;7.65;4.75;;;;;;;27.89;41.61;100171.16;1820929;78;22623;-75
2021/07/24 10:24:27;;;;;;;5.22;4.72;;;;;;;28.02;38.92;100170.59;1821627;77;20956;-75
2021/07/24 10:26:59;;;;;;;6.65;5.03;;;;;;;27.82;39.20;100172.36;1822787;77;20936;-74
2021/07/24 10:29:34;;;;;;;10.05;5.00;;;;;;;27.62;39.53;100172.19;1818974;77;20987;-74
2021/07/24 10:32:08;;;;;;;6.72;4.50;;;;;;;27.65;40.12;100169.52;1779210;78;21035;-76
2021/07/24 10:34:37;;;;;;;6.37;4.58;;;;;;;27.79;39.90;100171.45;1819539;77;22478;-74
2021/07/24 10:37:31;;;;;;;6.92;4.80;;;;;;;27.83;39.22;100174.83;1811108;77;20949;-74
2021/07/24 10:40:25;;;;;;;5.62;4.40;;;;;;;27.70;38.99;100165.60;1817618;78;21071;-74
2021/07/24 10:42:52;;;;;;;6.05;4.80;;;;;;;27.66;38.88;100165.23;1819814;77;21031;-75
2021/07/24 10:45:46;;;;;;;5.67;4.62;;;;;;;27.65;40.25;100164.09;1813969;78;21044;-75
2021/07/24 10:48:16;;;;;;;;;;;;;;;27.54;39.28;100158.98;1790036;79;21953;-76
2021/07/24 10:51:00;;;;;;;8.45;4.95;;;;;;;27.62;40.53;100157.27;1804787;79;20220;-75
2021/07/24 10:53:28;;;;;;;5.80;4.62;;;;;;;27.92;41.49;100161.70;1814802;78;21071;-76
2021/07/24 10:55:58;;;;;;;5.47;4.30;;;;;;;28.33;40.06;100160.62;1818663;77;21002;-76
2021/07/24 10:58:26;;;;;;;7.08;4.35;;;;;;;28.57;38.05;100165.42;1807647;78;21029;-76
2021/07/24 11:00:54;;;;;;;11.80;4.78;;;;;;;28.61;36.95;100162.48;1798033;77;22656;-76
2021/07/24 11:03:40;;;;;;;5.72;4.78;;;;;;;28.49;36.82;100165.27;1800224;78;21027;-77
2021/07/24 11:06:29;;;;;;;6.12;4.65;;;;;;;28.49;38.38;100159.84;1820036;78;21000;-78
2021/07/24 11:09:10;;;;;;;5.72;4.05;;;;;;;28.57;36.88;100164.56;1833335;78;20982;-76
2021/07/24 11:11:46;;;;;;;5.45;4.67;;;;;;;28.36;37.26;100165.56;1780907;78;20984;-77
2021/07/24 11:14:42;;;;;;;7.28;4.40;;;;;;;28.13;37.35;100168.36;1779301;78;22557;-77
2021/07/24 11:17:12;;;;;;;6.67;4.60;;;;;;;27.95;38.05;100171.54;1805518;77;21040;-76
2021/07/24 11:19:54;;;;;;;5.30;4.35;;;;;;;27.76;37.92;100172.77;1815813;78;21004;-76
2021/07/24 11:22:24;;;;;;;6.80;4.30;;;;;;;27.58;38.43;100172.88;1807208;77;21008;-76
2021/07/24 11:24:57;;;;;;;5.15;4.40;;;;;;;27.42;38.52;100180.41;1828773;78;21027;-75
2021/07/24 11:27:29;;;;;;;7.20;4.70;;;;;;;27.25;38.13;100178.94;1802506;78;22379;-77
2021/07/24 11:30:09;;;;;;;7.97;4.40;;;;;;;27.09;38.26;100181.27;1806632;78;21029;-75
2021/07/24 11:32:39;;;;;;;6.65;4.10;;;;;;;26.98;38.51;100178.52;1800663;78;21000;-77